Time;durP1;ratioP1;P1;durP2;ratioP2;P2;SDS_P1;SDS_P2;PMS_P1;PMS_P2;Temp;Humidity;BMP_temperature;BMP_pressure;BME280_temperature;BME280_humidity;BME280_pressure;Samples;Min_cycle;Max_cycle;Signal;HPM_P1;HPM_P2
2024/03/25 00:00:16;;;;;;;26.02;5.25;;;;;;;;;;5116651;28;20044;-55
2024/03/25 00:02:41;;;;;;;30.67;6.00;;;;;;;;;;5116559;28;20027;-52
2024/03/25 00:05:09;;;;;;;31.27;5.65;;;;;;;;;;5117063;28;20073;-55
2024/03/25 00:07:34;;;;;;;29.10;4.80;;;;;;;;;;5116229;28;20024;-55
2024/03/25 00:09:59;;;;;;;25.65;5.03;;;;;;;;;;5107614;28;20020;-52
2024/03/25 00:12:25;;;;;;;28.42;5.35;;;;;;;;;;5096622;28;20148;-56
2024/03/25 00:14:50;;;;;;;26.00;5.45;;;;;;;;;;5096535;28;20015;-55
2024/03/25 00:17:16;;;;;;;28.50;4.72;;;;;;;;;;5096058;28;20058;-54
2024/03/25 00:19:42;;;;;;;24.73;5.00;;;;;;;;;;5111897;28;20055;-56
2024/03/25 00:22:07;;;;;;;27.83;4.93;;;;;;;;;;5096319;28;20031;-56
2024/03/25 00:24:32;;;;;;;19.92;4.25;;;;;;;;;;5096328;28;20027;-53
2024/03/25 00:26:57;;;;;;;28.45;5.88;;;;;;;;;;5096385;28;20023;-54
2024/03/25 00:29:22;;;;;;;24.80;4.78;;;;;;;;;;5096331;28;20053;-55
2024/03/25 00:31:48;;;;;;;29.10;5.28;;;;;;;;;;5116006;28;20079;-53
2024/03/25 00:34:13;;;;;;;26.00;4.85;;;;;;;;;;5098618;28;20111;-55
2024/03/25 00:36:38;;;;;;;26.00;5.15;;;;;;;;;;5099033;28;20178;-52
2024/03/25 00:39:03;;;;;;;19.45;4.88;;;;;;;;;;5096266;28;20016;-55
2024/03/25 00:41:29;;;;;;;29.08;5.35;;;;;;;;;;5095909;28;20031;-57
2024/03/25 00:43:54;;;;;;;23.85;4.55;;;;;;;;;;5113668;28;20015;-55
2024/03/25 00:46:19;;;;;;;26.55;5.00;;;;;;;;;;5116307;28;20011;-56
2024/03/25 00:48:44;;;;;;;27.30;5.65;;;;;;;;;;5098303;28;20016;-57
2024/03/25 00:51:09;;;;;;;36.17;6.30;;;;;;;;;;5104601;28;20043;-55
2024/03/25 00:53:35;;;;;;;23.50;5.20;;;;;;;;;;5096102;28;20055;-52
2024/03/25 00:56:00;;;;;;;30.17;5.50;;;;;;;;;;5078544;28;20115;-54
2024/03/25 00:58:25;;;;;;;27.08;5.78;;;;;;;;;;5095648;28;20028;-53
2024/03/25 01:00:50;;;;;;;24.23;5.30;;;;;;;;;;5102495;28;20020;-54
2024/03/25 01:03:16;;;;;;;28.83;5.82;;;;;;;;;;5116513;28;20019;-55
2024/03/25 01:05:41;;;;;;;27.75;5.63;;;;;;;;;;5115968;28;20080;-53
2024/03/25 01:08:10;;;;;;;27.33;5.30;;;;;;;;;;5115861;28;20098;-52
2024/03/25 01:10:35;;;;;;;31.45;6.50;;;;;;;;;;5111787;28;20020;-55
2024/03/25 01:13:01;;;;;;;29.80;5.97;;;;;;;;;;5095408;28;20020;-56
2024/03/25 01:15:26;;;;;;;25.50;5.68;;;;;;;;;;5077503;28;20023;-53
2024/03/25 01:17:51;;;;;;;20.98;5.25;;;;;;;;;;5095388;28;20378;-54
2024/03/25 01:20:16;;;;;;;25.10;5.57;;;;;;;;;;5095346;28;20020;-55
2024/03/25 01:22:42;;;;;;;28.45;5.45;;;;;;;;;;5098671;28;20027;-53
2024/03/25 01:25:07;;;;;;;33.13;6.00;;;;;;;;;;5115775;28;20099;-56
2024/03/25 01:27:32;;;;;;;30.15;6.13;;;;;;;;;;5115261;28;20110;-54
2024/03/25 01:29:57;;;;;;;28.92;5.50;;;;;;;;;;5096272;28;20521;-53
2024/03/25 01:32:23;;;;;;;26.77;5.63;;;;;;;;;;5095146;28;20028;-55
2024/03/25 01:34:48;;;;;;;35.08;6.68;;;;;;;;;;5097632;28;20353;-54
2024/03/25 01:37:13;;;;;;;28.73;5.30;;;;;;;;;;5115372;28;20042;-53
2024/03/25 01:39:38;;;;;;;26.75;6.03;;;;;;;;;;5115579;28;20019;-54
2024/03/25 01:42:04;;;;;;;23.85;5.65;;;;;;;;;;5115187;28;20020;-54
2024/03/25 01:44:29;;;;;;;25.70;6.72;;;;;;;;;;5115354;28;20096;-56
2024/03/25 01:46:55;;;;;;;28.88;5.70;;;;;;;;;;5112544;28;20049;-57
2024/03/25 01:49:22;;;;;;;25.33;5.95;;;;;;;;;;5095003;28;20016;-53
2024/03/25 01:51:48;;;;;;;27.63;5.00;;;;;;;;;;5094666;28;20016;-56
2024/03/25 01:54:16;;;;;;;27.50;6.03;;;;;;;;;;5094637;28;20027;-58
2024/03/25 01:56:43;;;;;;;23.95;5.22;;;;;;;;;;5105295;28;20030;-55
2024/03/25 01:59:10;;;;;;;26.23;5.40;;;;;;;;;;5111845;28;20441;-55
2024/03/25 02:01:36;;;;;;;26.02;5.55;;;;;;;;;;5094451;28;20026;-57
2024/03/25 02:04:03;;;;;;;27.17;5.85;;;;;;;;;;5094512;28;20023;-54
2024/03/25 02:06:30;;;;;;;32.42;6.18;;;;;;;;;;5094487;28;20095;-55
2024/03/25 02:08:56;;;;;;;25.15;6.15;;;;;;;;;;5095246;28;20068;-55
2024/03/25 02:11:22;;;;;;;30.63;6.32;;;;;;;;;;5096449;28;20469;-55
2024/03/25 02:13:50;;;;;;;26.23;5.80;;;;;;;;;;5114820;28;20057;-54
2024/03/25 02:16:17;;;;;;;24.17;5.97;;;;;;;;;;5114711;28;20024;-53
2024/03/25 02:18:43;;;;;;;25.55;6.00;;;;;;;;;;5114713;28;20019;-57
2024/03/25 02:21:10;;;;;;;27.48;6.50;;;;;;;;;;5114641;28;20026;-53
2024/03/25 02:23:38;;;;;;;23.88;5.38;;;;;;;;;;5114562;28;20057;-57
2024/03/25 02:26:05;;;;;;;29.45;6.82;;;;;;;;;;5114967;28;20031;-53
2024/03/25 02:28:30;;;;;;;29.88;6.28;;;;;;;;;;5096502;28;20032;-55
2024/03/25 02:30:57;;;;;;;25.43;5.83;;;;;;;;;;5114700;28;20012;-52
2024/03/25 02:33:23;;;;;;;25.00;6.03;;;;;;;;;;5114763;28;20022;-55
2024/03/25 02:35:49;;;;;;;31.13;6.25;;;;;;;;;;5107727;28;20099;-55
2024/03/25 02:38:18;;;;;;;22.15;6.18;;;;;;;;;;5094206;28;20430;-52
2024/03/25 02:40:45;;;;;;;19.83;5.45;;;;;;;;;;5097228;28;20027;-54
2024/03/25 02:43:11;;;;;;;21.60;5.35;;;;;;;;;;5098267;28;20392;-54
2024/03/25 02:45:37;;;;;;;22.02;5.88;;;;;;;;;;5098102;28;20461;-54
2024/03/25 02:48:04;;;;;;;28.67;6.63;;;;;;;;;;5103607;28;20015;-52
2024/03/25 02:50:31;;;;;;;30.27;6.70;;;;;;;;;;5095585;28;20016;-52
2024/03/25 02:52:58;;;;;;;24.15;5.65;;;;;;;;;;5098292;28;20028;-54
2024/03/25 02:55:24;;;;;;;27.70;6.63;;;;;;;;;;5098229;28;20043;-56
2024/03/25 02:57:50;;;;;;;24.00;5.97;;;;;;;;;;5097856;28;20023;-58
2024/03/25 03:02:48;;;;;;;28.10;6.35;;;;;;;;;;5057094;28;20037;-85
2024/03/25 03:05:15;;;;;;;23.88;6.45;;;;;;;;;;5059842;28;20104;-85
2024/03/25 03:07:42;;;;;;;33.55;6.15;;;;;;;;;;5024526;28;20086;-85
2024/03/25 03:10:09;;;;;;;27.63;6.13;;;;;;;;;;5058317;28;20025;-85
2024/03/25 03:12:36;;;;;;;26.17;6.20;;;;;;;;;;5041584;28;20086;-85
2024/03/25 03:15:01;;;;;;;26.60;6.10;;;;;;;;;;5059449;28;20017;-85
2024/03/25 03:17:28;;;;;;;31.27;6.17;;;;;;;;;;5058351;28;20029;-85
2024/03/25 03:19:54;;;;;;;27.45;5.53;;;;;;;;;;5058169;28;20021;-85
2024/03/25 03:22:21;;;;;;;25.17;5.45;;;;;;;;;;5058177;28;20438;-85
2024/03/25 03:24:47;;;;;;;30.10;5.75;;;;;;;;;;5058609;28;20083;-84
2024/03/25 03:27:13;;;;;;;27.73;6.43;;;;;;;;;;5040872;28;20025;-85
2024/03/25 03:29:40;;;;;;;24.97;5.17;;;;;;;;;;5058007;28;20013;-85
2024/03/25 03:32:06;;;;;;;23.33;5.70;;;;;;;;;;5040500;28;20024;-85
2024/03/25 03:34:33;;;;;;;26.60;6.17;;;;;;;;;;5057821;28;20049;-85
2024/03/25 03:36:59;;;;;;;32.38;6.25;;;;;;;;;;5059117;28;20021;-85
2024/03/25 03:39:26;;;;;;;31.20;6.45;;;;;;;;;;5040056;28;20024;-85
2024/03/25 03:41:53;;;;;;;28.70;5.25;;;;;;;;;;5039904;28;20077;-85
2024/03/25 03:44:20;;;;;;;28.15;5.90;;;;;;;;;;5039929;28;20028;-85
2024/03/25 03:46:47;;;;;;;27.17;5.80;;;;;;;;;;5040987;28;20082;-85
2024/03/25 03:49:13;;;;;;;23.88;5.85;;;;;;;;;;5057179;28;20028;-86
2024/03/25 03:51:39;;;;;;;24.97;5.47;;;;;;;;;;5056652;28;20017;-85
2024/03/25 03:54:06;;;;;;;22.20;5.73;;;;;;;;;;5039467;28;20179;-85
2024/03/25 03:56:32;;;;;;;35.60;6.47;;;;;;;;;;5039642;28;20021;-85
2024/03/25 03:58:58;;;;;;;31.08;6.20;;;;;;;;;;5058057;28;20017;-85
2024/03/25 04:01:25;;;;;;;26.17;5.72;;;;;;;;;;5071621;22;20406;-54
2024/03/25 04:03:51;;;;;;;27.58;5.80;;;;;;;;;;5056428;28;20096;-57
2024/03/25 04:06:18;;;;;;;22.00;5.78;;;;;;;;;;5056354;28;20017;-54
2024/03/25 04:08:44;;;;;;;27.23;5.80;;;;;;;;;;5056496;28;20021;-58
2024/03/25 04:11:11;;;;;;;30.60;5.73;;;;;;;;;;5056346;28;20434;-57
2024/03/25 04:13:38;;;;;;;22.58;5.50;;;;;;;;;;5056263;28;20021;-57
2024/03/25 04:16:05;;;;;;;22.33;5.75;;;;;;;;;;5056461;28;20024;-56
2024/03/25 04:18:32;;;;;;;30.05;5.93;;;;;;;;;;5056204;28;20025;-56
2024/03/25 04:20:59;;;;;;;27.40;6.18;;;;;;;;;;5056074;28;20410;-56
2024/03/25 04:23:26;;;;;;;23.77;5.78;;;;;;;;;;5056206;28;20025;-56
2024/03/25 04:25:52;;;;;;;32.03;6.55;;;;;;;;;;5056099;28;20024;-57
2024/03/25 04:28:19;;;;;;;27.05;6.07;;;;;;;;;;5056202;28;20099;-55
2024/03/25 04:30:55;;;;;;;26.55;5.95;;;;;;;;;;5056240;28;20020;-55
2024/03/25 04:33:21;;;;;;;25.98;6.00;;;;;;;;;;5056791;28;20063;-56
2024/03/25 04:35:48;;;;;;;30.40;5.93;;;;;;;;;;5056393;28;20029;-54
2024/03/25 04:38:17;;;;;;;27.75;6.25;;;;;;;;;;5056590;28;20032;-57
2024/03/25 04:40:44;;;;;;;28.05;5.95;;;;;;;;;;5056314;28;20067;-56
2024/03/25 04:43:10;;;;;;;22.63;5.38;;;;;;;;;;5056176;28;20025;-54
2024/03/25 04:45:37;;;;;;;23.13;5.38;;;;;;;;;;5056101;28;20031;-57
2024/03/25 04:48:03;;;;;;;25.20;5.35;;;;;;;;;;5038524;28;20025;-56
2024/03/25 04:50:30;;;;;;;23.42;5.43;;;;;;;;;;5056164;28;20032;-55
2024/03/25 04:52:56;;;;;;;26.42;5.97;;;;;;;;;;5039237;28;20108;-57
2024/03/25 04:55:22;;;;;;;28.58;6.45;;;;;;;;;;5055961;28;20417;-54
2024/03/25 04:57:49;;;;;;;23.38;5.38;;;;;;;;;;5038355;28;20437;-56
2024/03/25 05:00:15;;;;;;;24.60;6.00;;;;;;;;;;5056145;28;20044;-56
2024/03/25 05:02:41;;;;;;;34.85;7.20;;;;;;;;;;5056206;28;20029;-57
2024/03/25 05:05:08;;;;;;;26.50;6.85;;;;;;;;;;5056083;28;20331;-56
2024/03/25 05:07:34;;;;;;;28.65;6.55;;;;;;;;;;5055666;28;20025;-56
2024/03/25 05:10:01;;;;;;;24.88;5.85;;;;;;;;;;5056499;28;20017;-54
2024/03/25 05:12:29;;;;;;;22.83;6.32;;;;;;;;;;5038846;28;20491;-54
2024/03/25 05:14:56;;;;;;;31.88;6.43;;;;;;;;;;5055911;28;20092;-57
2024/03/25 05:17:23;;;;;;;29.20;6.00;;;;;;;;;;5055479;28;20017;-57
2024/03/25 05:19:50;;;;;;;28.35;5.68;;;;;;;;;;5055540;28;20350;-54
2024/03/25 05:22:17;;;;;;;32.08;6.88;;;;;;;;;;5055654;28;20325;-54
2024/03/25 05:24:44;;;;;;;31.77;6.93;;;;;;;;;;5055434;28;20017;-55
2024/03/25 05:27:09;;;;;;;26.33;6.05;;;;;;;;;;5055348;28;20055;-57
2024/03/25 05:29:36;;;;;;;29.48;6.43;;;;;;;;;;5055297;28;20049;-57
2024/03/25 05:32:02;;;;;;;24.33;6.03;;;;;;;;;;5055040;28;20031;-56
2024/03/25 05:34:28;;;;;;;27.77;5.82;;;;;;;;;;5054885;28;20047;-57
2024/03/25 05:36:55;;;;;;;29.08;6.38;;;;;;;;;;5055142;28;20031;-56
2024/03/25 05:39:22;;;;;;;24.92;6.60;;;;;;;;;;5055410;28;20021;-56
2024/03/25 05:41:48;;;;;;;30.23;6.85;;;;;;;;;;5055238;28;20017;-57
2024/03/25 05:44:14;;;;;;;29.02;6.53;;;;;;;;;;5055051;28;20028;-56
2024/03/25 05:46:41;;;;;;;23.88;6.07;;;;;;;;;;5055027;28;20017;-57
2024/03/25 05:49:08;;;;;;;29.30;7.15;;;;;;;;;;5054949;28;20096;-53
2024/03/25 05:51:34;;;;;;;27.17;6.45;;;;;;;;;;5054908;28;20031;-58
2024/03/25 05:54:01;;;;;;;24.48;6.63;;;;;;;;;;5054982;28;20031;-54
2024/03/25 05:56:32;;;;;;;28.95;6.18;;;;;;;;;;5054863;28;20082;-57
2024/03/25 05:58:59;;;;;;;31.08;6.90;;;;;;;;;;5055096;28;20438;-54
2024/03/25 06:01:24;;;;;;;26.63;6.55;;;;;;;;;;5054653;28;20037;-56
2024/03/25 06:03:51;;;;;;;23.92;6.63;;;;;;;;;;5054947;28;20082;-54
2024/03/25 06:06:17;;;;;;;28.42;6.07;;;;;;;;;;5054761;28;20049;-58
2024/03/25 06:08:44;;;;;;;28.27;6.70;;;;;;;;;;5054744;28;20079;-55
2024/03/25 06:11:09;;;;;;;27.83;6.88;;;;;;;;;;5054792;28;20028;-57
2024/03/25 06:13:36;;;;;;;25.58;6.65;;;;;;;;;;5054687;28;20491;-54
2024/03/25 06:16:03;;;;;;;28.67;6.82;;;;;;;;;;5054249;28;20044;-56
2024/03/25 06:18:29;;;;;;;25.75;7.03;;;;;;;;;;5054595;28;20024;-57
2024/03/25 06:20:55;;;;;;;25.50;6.70;;;;;;;;;;5054837;28;20017;-56
2024/03/25 06:23:26;;;;;;;25.83;5.57;;;;;;;;;;5054840;28;20013;-55
2024/03/25 06:25:53;;;;;;;29.05;7.45;;;;;;;;;;5054563;28;20024;-57
2024/03/25 06:28:20;;;;;;;23.67;6.72;;;;;;;;;;5054550;28;20096;-56
2024/03/25 06:36:19;;;;;;;32.45;7.47;;;;;;;;;;5054772;28;20106;-56
2024/03/25 06:38:44;;;;;;;19.00;6.60;;;;;;;;;;5054709;28;20475;-57
2024/03/25 06:41:11;;;;;;;33.30;7.60;;;;;;;;;;5054305;28;20079;-54
2024/03/25 06:43:38;;;;;;;25.05;7.90;;;;;;;;;;5054706;28;20025;-55
2024/03/25 06:46:04;;;;;;;32.25;7.65;;;;;;;;;;5054204;28;20024;-57
2024/03/25 06:48:31;;;;;;;23.50;7.18;;;;;;;;;;5054282;28;20040;-58
2024/03/25 06:50:59;;;;;;;28.80;7.20;;;;;;;;;;5054491;28;20416;-55
2024/03/25 06:53:24;;;;;;;29.27;8.07;;;;;;;;;;5054381;28;20358;-54
2024/03/25 06:56:01;;;;;;;24.67;6.65;;;;;;;;;;5054327;28;20027;-57
2024/03/25 06:58:30;;;;;;;32.58;8.00;;;;;;;;;;5037090;28;20049;-57
2024/03/25 07:00:56;;;;;;;21.35;6.65;;;;;;;;;;5054177;28;20028;-56
2024/03/25 07:03:23;;;;;;;27.27;6.72;;;;;;;;;;5054214;28;20036;-54
2024/03/25 07:05:54;;;;;;;26.70;8.93;;;;;;;;;;5054296;28;20100;-58
2024/03/25 07:08:21;;;;;;;27.48;7.63;;;;;;;;;;5054335;28;20390;-56
2024/03/25 07:10:48;;;;;;;28.88;7.93;;;;;;;;;;5054218;28;20036;-56
2024/03/25 07:13:14;;;;;;;25.33;7.25;;;;;;;;;;5054136;28;20529;-54
2024/03/25 07:15:40;;;;;;;24.23;7.30;;;;;;;;;;5054110;28;20020;-56
2024/03/25 07:18:06;;;;;;;23.77;6.93;;;;;;;;;;5054058;28;20361;-55
2024/03/25 07:20:33;;;;;;;26.42;7.70;;;;;;;;;;5054419;28;20029;-56
2024/03/25 07:23:00;;;;;;;25.98;8.07;;;;;;;;;;5054020;28;20099;-57
2024/03/25 07:25:26;;;;;;;27.23;8.10;;;;;;;;;;5054075;28;20013;-56
2024/03/25 07:27:52;;;;;;;25.02;7.35;;;;;;;;;;5039302;28;20065;-57
2024/03/25 07:30:19;;;;;;;34.47;8.70;;;;;;;;;;5057545;28;20445;-56
2024/03/25 07:32:46;;;;;;;23.73;7.55;;;;;;;;;;5057964;28;20086;-55
2024/03/25 07:35:13;;;;;;;27.58;7.97;;;;;;;;;;5057456;28;20387;-56
2024/03/25 07:37:39;;;;;;;23.48;7.95;;;;;;;;;;5057355;28;20075;-53
2024/03/25 07:40:06;;;;;;;30.50;7.75;;;;;;;;;;5057384;28;20020;-57
2024/03/25 07:42:32;;;;;;;28.98;10.13;;;;;;;;;;5057204;28;20075;-56
2024/03/25 07:44:59;;;;;;;24.10;7.53;;;;;;;;;;5057552;28;20434;-56
2024/03/25 07:47:26;;;;;;;31.17;8.68;;;;;;;;;;5057405;28;20087;-57
2024/03/25 07:49:53;;;;;;;22.05;6.75;;;;;;;;;;5057125;28;20025;-58
2024/03/25 07:52:19;;;;;;;22.50;7.32;;;;;;;;;;5057132;28;20059;-56
2024/03/25 07:54:46;;;;;;;30.95;7.97;;;;;;;;;;5057061;28;20107;-54
2024/03/25 07:57:12;;;;;;;20.30;6.10;;;;;;;;;;5057212;28;20091;-57
2024/03/25 07:59:39;;;;;;;24.80;6.13;;;;;;;;;;5056628;28;20113;-58
2024/03/25 08:02:05;;;;;;;26.63;7.53;;;;;;;;;;5057003;28;20017;-57
2024/03/25 08:04:31;;;;;;;33.10;7.45;;;;;;;;;;5057153;28;20319;-56
2024/03/25 08:06:58;;;;;;;25.25;7.88;;;;;;;;;;5056620;28;20009;-54
2024/03/25 08:09:25;;;;;;;27.55;7.22;;;;;;;;;;5056720;28;20032;-55
2024/03/25 08:11:51;;;;;;;21.90;6.85;;;;;;;;;;5057417;28;20021;-56
2024/03/25 08:14:18;;;;;;;22.33;6.43;;;;;;;;;;5056885;28;20025;-58
2024/03/25 08:16:43;;;;;;;28.05;6.97;;;;;;;;;;5056649;28;20025;-55
2024/03/25 08:19:10;;;;;;;20.35;6.85;;;;;;;;;;5056874;28;20033;-58
2024/03/25 08:21:36;;;;;;;35.45;8.45;;;;;;;;;;5056460;28;20021;-55
2024/03/25 08:24:03;;;;;;;22.10;6.32;;;;;;;;;;5056496;28;20040;-56
2024/03/25 08:26:28;;;;;;;28.88;6.38;;;;;;;;;;5056890;28;20037;-54
2024/03/25 08:28:55;;;;;;;27.38;6.22;;;;;;;;;;5056366;28;20430;-58
2024/03/25 08:31:21;;;;;;;23.90;6.80;;;;;;;;;;5056285;28;20017;-55
2024/03/25 08:33:48;;;;;;;23.27;6.18;;;;;;;;;;5056372;28;20047;-58
2024/03/25 08:36:14;;;;;;;32.35;6.30;;;;;;;;;;5056594;28;20433;-56
2024/03/25 08:38:41;;;;;;;24.02;5.25;;;;;;;;;;5055866;28;20127;-57
2024/03/25 08:41:07;;;;;;;24.00;5.95;;;;;;;;;;5056190;28;20020;-55
2024/03/25 08:43:33;;;;;;;21.95;5.65;;;;;;;;;;5056198;28;20017;-57
2024/03/25 08:46:01;;;;;;;17.50;5.43;;;;;;;;;;5056159;28;20380;-56
2024/03/25 08:48:27;;;;;;;23.98;5.43;;;;;;;;;;5056018;28;20391;-58
2024/03/25 08:50:54;;;;;;;25.85;6.28;;;;;;;;;;5056392;28;20035;-55
2024/03/25 08:53:21;;;;;;;24.27;5.95;;;;;;;;;;5056004;28;20067;-56
2024/03/25 08:55:47;;;;;;;20.15;5.20;;;;;;;;;;5055837;28;20362;-56
2024/03/25 08:58:14;;;;;;;25.80;5.80;;;;;;;;;;5055808;28;20021;-57
2024/03/25 09:00:39;;;;;;;21.25;5.10;;;;;;;;;;5056111;28;20017;-55
2024/03/25 09:03:06;;;;;;;18.42;5.07;;;;;;;;;;5055717;28;20353;-58
2024/03/25 09:05:31;;;;;;;25.73;5.47;;;;;;;;;;5056559;28;20021;-56
2024/03/25 09:07:58;;;;;;;22.73;4.65;;;;;;;;;;5056399;28;20024;-58
2024/03/25 09:13:10;;;;;;;17.60;3.95;;;;;;;;;;5055852;28;20039;-58
2024/03/25 09:15:37;;;;;;;20.35;4.32;;;;;;;;;;5055478;28;20021;-58
2024/03/25 09:18:03;;;;;;;18.63;4.38;;;;;;;;;;5055416;28;20040;-57
2024/03/25 09:20:30;;;;;;;19.42;3.42;;;;;;;;;;5055905;28;20032;-58
2024/03/25 09:22:56;;;;;;;16.92;3.80;;;;;;;;;;5055419;28;20025;-57
2024/03/25 09:25:23;;;;;;;20.02;3.78;;;;;;;;;;5055409;28;20028;-56
2024/03/25 09:27:50;;;;;;;12.05;2.97;;;;;;;;;;5055342;28;20017;-57
2024/03/25 09:30:19;;;;;;;15.82;3.55;;;;;;;;;;5055292;28;20020;-55
2024/03/25 09:32:45;;;;;;;17.02;3.72;;;;;;;;;;5055223;28;20025;-54
2024/03/25 09:35:12;;;;;;;16.98;3.90;;;;;;;;;;5037622;28;20029;-55
2024/03/25 09:37:39;;;;;;;16.65;4.05;;;;;;;;;;5055724;28;20048;-59
2024/03/25 09:40:05;;;;;;;18.50;4.15;;;;;;;;;;5056174;28;20075;-59
2024/03/25 09:42:56;;;;;;;20.10;4.20;;;;;;;;;;5056092;28;20029;-60
2024/03/25 09:45:25;;;;;;;21.50;6.13;;;;;;;;;;5056188;28;20032;-59
2024/03/25 09:47:51;;;;;;;15.55;3.72;;;;;;;;;;5038316;28;20025;-61
2024/03/25 09:50:21;;;;;;;21.83;5.28;;;;;;;;;;5055137;28;20017;-57
2024/03/25 09:52:48;;;;;;;21.33;6.20;;;;;;;;;;5055588;28;20029;-59
2024/03/25 09:55:15;;;;;;;13.45;3.58;;;;;;;;;;5054758;28;20021;-58
2024/03/25 09:57:44;;;;;;;17.92;4.00;;;;;;;;;;5054403;28;20082;-57
2024/03/25 10:00:11;;;;;;;14.13;3.75;;;;;;;;;;5054447;28;20099;-58
2024/03/25 10:02:38;;;;;;;14.32;3.53;;;;;;;;;;5055023;28;20061;-58
2024/03/25 10:05:04;;;;;;;15.32;3.85;;;;;;;;;;5054917;28;20013;-55
2024/03/25 10:07:29;;;;;;;21.73;4.45;;;;;;;;;;5054768;28;20068;-58
2024/03/25 10:09:56;;;;;;;13.23;3.78;;;;;;;;;;5055151;28;20009;-55
2024/03/25 10:12:21;;;;;;;16.83;4.93;;;;;;;;;;5054323;28;20033;-58
2024/03/25 10:14:46;;;;;;;14.20;5.10;;;;;;;;;;5054794;28;20461;-58
2024/03/25 10:17:13;;;;;;;16.85;4.53;;;;;;;;;;5054592;28;20093;-57
2024/03/25 10:19:38;;;;;;;16.17;3.70;;;;;;;;;;5054201;28;20049;-58
2024/03/25 10:22:07;;;;;;;16.85;4.25;;;;;;;;;;5054147;28;20471;-55
2024/03/25 10:24:46;;;;;;;18.63;4.45;;;;;;;;;;5054478;28;20017;-57
2024/03/25 10:27:22;;;;;;;16.27;4.32;;;;;;;;;;5070332;28;20422;-56
2024/03/25 10:29:53;;;;;;;15.85;3.75;;;;;;;;;;5054962;28;20418;-58
2024/03/25 10:32:19;;;;;;;15.57;4.13;;;;;;;;;;5054536;28;20489;-58
2024/03/25 10:34:46;;;;;;;17.17;4.70;;;;;;;;;;5054477;28;20083;-57
2024/03/25 10:37:13;;;;;;;16.95;4.47;;;;;;;;;;5054538;28;20510;-55
2024/03/25 10:39:39;;;;;;;16.92;4.63;;;;;;;;;;5054854;28;20025;-58
2024/03/25 10:42:06;;;;;;;21.55;4.38;;;;;;;;;;5036836;28;20186;-57
2024/03/25 10:44:33;;;;;;;22.42;4.78;;;;;;;;;;5054283;28;20033;-55
2024/03/25 10:47:05;;;;;;;15.35;4.32;;;;;;;;;;5054184;28;20493;-55
2024/03/25 10:49:49;;;;;;;15.40;4.47;;;;;;;;;;5054346;28;20117;-55
2024/03/25 10:52:16;;;;;;;16.10;4.80;;;;;;;;;;5053860;28;20027;-57
2024/03/25 10:54:45;;;;;;;16.42;4.57;;;;;;;;;;5054315;28;20017;-55
2024/03/25 10:57:12;;;;;;;15.52;4.65;;;;;;;;;;5036154;28;20029;-55
2024/03/25 10:59:41;;;;;;;16.40;4.75;;;;;;;;;;5054257;28;20017;-55
2024/03/25 11:02:07;;;;;;;13.68;4.20;;;;;;;;;;5057427;28;20087;-56
2024/03/25 11:04:34;;;;;;;13.00;4.28;;;;;;;;;;5058030;28;20036;-57
2024/03/25 11:07:06;;;;;;;13.88;4.85;;;;;;;;;;5040655;28;20127;-55
2024/03/25 11:09:33;;;;;;;17.08;5.03;;;;;;;;;;5040646;28;20087;-57
2024/03/25 11:11:58;;;;;;;17.27;5.22;;;;;;;;;;5040507;28;20339;-57
2024/03/25 11:14:28;;;;;;;19.35;6.63;;;;;;;;;;5057880;28;20036;-58
2024/03/25 11:16:54;;;;;;;16.95;5.13;;;;;;;;;;5058334;28;20032;-58
2024/03/25 11:19:20;;;;;;;30.15;5.85;;;;;;;;;;5058853;28;20342;-57
2024/03/25 11:21:46;;;;;;;13.57;4.32;;;;;;;;;;5057592;28;20036;-56
2024/03/25 11:24:11;;;;;;;13.85;4.93;;;;;;;;;;5057661;28;20028;-54
2024/03/25 11:26:40;;;;;;;14.88;4.78;;;;;;;;;;5057629;28;20017;-57
2024/03/25 11:29:05;;;;;;;12.32;4.40;;;;;;;;;;5057660;28;20092;-58
2024/03/25 11:31:32;;;;;;;16.33;4.65;;;;;;;;;;5057487;28;20464;-59
2024/03/25 11:33:57;;;;;;;13.65;5.15;;;;;;;;;;5057519;28;20032;-59
2024/03/25 11:36:25;;;;;;;10.40;4.13;;;;;;;;;;5057115;28;20357;-56
2024/03/25 11:38:59;;;;;;;12.25;4.53;;;;;;;;;;5057688;28;20048;-56
2024/03/25 11:41:25;;;;;;;12.57;4.57;;;;;;;;;;5056212;28;20021;-56
2024/03/25 11:43:50;;;;;;;12.65;4.07;;;;;;;;;;5057500;28;20096;-56
2024/03/25 11:46:19;;;;;;;12.05;3.92;;;;;;;;;;5057464;28;20049;-57
2024/03/25 11:48:44;;;;;;;14.18;4.85;;;;;;;;;;5057399;28;20028;-56
2024/03/25 11:51:16;;;;;;;10.68;4.38;;;;;;;;;;5056713;28;20013;-56
2024/03/25 11:53:43;;;;;;;9.32;3.95;;;;;;;;;;5057615;28;20108;-56
2024/03/25 11:56:10;;;;;;;11.73;4.15;;;;;;;;;;5056818;28;20025;-55
2024/03/25 11:58:36;;;;;;;11.25;3.40;;;;;;;;;;5071095;28;20108;-56
2024/03/25 12:01:01;;;;;;;9.48;3.70;;;;;;;;;;5057128;28;20159;-56
2024/03/25 12:03:26;;;;;;;11.30;3.50;;;;;;;;;;5056676;28;20051;-54
2024/03/25 12:05:51;;;;;;;11.75;4.18;;;;;;;;;;5056829;28;20021;-54
2024/03/25 12:08:17;;;;;;;11.75;4.15;;;;;;;;;;5056590;28;20021;-56
2024/03/25 12:13:27;;;;;;;12.38;3.70;;;;;;;;;;5056132;28;20420;-56
2024/03/25 12:15:52;;;;;;;14.68;4.75;;;;;;;;;;5057114;28;20025;-57
2024/03/25 12:18:21;;;;;;;22.40;6.50;;;;;;;;;;5039016;28;20122;-52
2024/03/25 12:20:46;;;;;;;9.77;3.38;;;;;;;;;;5056291;28;20025;-55
2024/03/25 12:23:11;;;;;;;10.20;3.25;;;;;;;;;;5056404;28;20040;-57
2024/03/25 12:25:37;;;;;;;9.98;3.03;;;;;;;;;;5056104;28;20029;-56
2024/03/25 12:28:07;;;;;;;15.63;4.03;;;;;;;;;;5038876;28;20025;-57
2024/03/25 12:30:40;;;;;;;8.43;3.13;;;;;;;;;;5056395;28;20099;-58
2024/03/25 12:33:06;;;;;;;13.32;6.25;;;;;;;;;;5056974;28;20403;-59
2024/03/25 12:35:34;;;;;;;9.63;4.22;;;;;;;;;;5056067;28;20100;-58
2024/03/25 12:38:00;;;;;;;7.03;2.28;;;;;;;;;;5056335;28;20017;-57
2024/03/25 12:40:28;;;;;;;9.00;2.80;;;;;;;;;;5056194;28;20087;-58
2024/03/25 12:42:54;;;;;;;7.53;2.80;;;;;;;;;;5056173;28;20464;-55
2024/03/25 12:45:25;;;;;;;6.70;2.63;;;;;;;;;;5038527;28;20029;-54
2024/03/25 12:47:50;;;;;;;8.35;3.22;;;;;;;;;;5055970;28;20017;-57
2024/03/25 12:50:15;;;;;;;8.60;2.88;;;;;;;;;;5055932;28;20021;-56
2024/03/25 12:52:40;;;;;;;7.90;2.60;;;;;;;;;;5055840;28;20024;-57
2024/03/25 12:55:06;;;;;;;6.97;2.88;;;;;;;;;;5055737;28;20025;-57
2024/03/25 12:57:31;;;;;;;6.43;2.50;;;;;;;;;;5054679;28;20032;-58
2024/03/25 12:59:57;;;;;;;7.68;2.70;;;;;;;;;;5055663;28;20459;-58
2024/03/25 13:02:23;;;;;;;8.48;3.30;;;;;;;;;;5055626;28;20024;-58
2024/03/25 13:04:49;;;;;;;6.35;2.50;;;;;;;;;;5055733;28;20159;-58
2024/03/25 13:07:15;;;;;;;6.43;2.35;;;;;;;;;;5055894;28;20013;-57
2024/03/25 13:09:42;;;;;;;7.63;2.63;;;;;;;;;;5055803;28;20021;-58
2024/03/25 13:12:08;;;;;;;6.05;2.05;;;;;;;;;;5055601;28;20094;-59
2024/03/25 13:14:35;;;;;;;6.82;2.42;;;;;;;;;;5055693;28;20017;-58
2024/03/25 13:17:02;;;;;;;8.15;2.22;;;;;;;;;;5056084;28;20021;-58
2024/03/25 13:19:29;;;;;;;8.45;2.20;;;;;;;;;;5055505;28;20078;-59
2024/03/25 13:21:57;;;;;;;8.60;2.63;;;;;;;;;;5055074;28;20028;-58
2024/03/25 13:24:23;;;;;;;8.70;2.95;;;;;;;;;;5054568;28;20051;-57
2024/03/25 13:26:50;;;;;;;8.13;2.95;;;;;;;;;;5055676;28;20028;-57
2024/03/25 13:29:16;;;;;;;7.10;2.72;;;;;;;;;;5070884;28;20027;-58
2024/03/25 13:31:43;;;;;;;7.03;2.33;;;;;;;;;;5055314;28;20408;-57
2024/03/25 13:34:09;;;;;;;7.03;2.40;;;;;;;;;;5055329;28;20021;-58
2024/03/25 13:36:36;;;;;;;7.00;2.60;;;;;;;;;;5038705;28;20025;-58
2024/03/25 13:39:03;;;;;;;7.60;3.00;;;;;;;;;;5055168;28;20398;-58
2024/03/25 13:41:29;;;;;;;7.47;2.85;;;;;;;;;;5055317;28;20047;-58
2024/03/25 13:43:56;;;;;;;8.68;3.15;;;;;;;;;;5055114;28;20044;-56
2024/03/25 13:46:21;;;;;;;7.55;2.35;;;;;;;;;;5041857;28;20126;-57
2024/03/25 13:48:49;;;;;;;6.38;2.45;;;;;;;;;;5035166;28;20057;-56
2024/03/25 13:51:14;;;;;;;6.45;2.10;;;;;;;;;;5035144;28;20017;-54
2024/03/25 13:53:39;;;;;;;6.47;2.42;;;;;;;;;;5035032;28;20028;-56
2024/03/25 13:56:06;;;;;;;9.95;2.40;;;;;;;;;;5034388;28;20100;-56
2024/03/25 13:58:31;;;;;;;5.60;2.03;;;;;;;;;;5051038;28;20043;-58
2024/03/25 14:00:56;;;;;;;10.18;3.08;;;;;;;;;;5054885;28;20017;-57
2024/03/25 14:03:21;;;;;;;5.80;2.08;;;;;;;;;;5054965;28;20120;-55
2024/03/25 14:05:46;;;;;;;7.60;2.60;;;;;;;;;;5055016;28;20049;-57
2024/03/25 14:08:12;;;;;;;9.70;2.20;;;;;;;;;;5041505;28;20045;-56
2024/03/25 14:10:37;;;;;;;7.03;2.20;;;;;;;;;;5034764;28;20017;-57
2024/03/25 14:13:03;;;;;;;6.47;2.20;;;;;;;;;;5035056;28;20029;-57
2024/03/25 14:15:28;;;;;;;8.77;2.20;;;;;;;;;;5035031;28;20461;-56
2024/03/25 14:17:53;;;;;;;7.00;1.80;;;;;;;;;;5043355;28;20079;-54
2024/03/25 14:20:18;;;;;;;9.43;2.72;;;;;;;;;;5055003;28;20021;-56
2024/03/25 14:22:44;;;;;;;5.78;1.83;;;;;;;;;;5054628;28;20112;-53
2024/03/25 14:25:10;;;;;;;6.95;2.10;;;;;;;;;;5026773;28;20025;-55
2024/03/25 14:27:37;;;;;;;9.63;2.63;;;;;;;;;;5034979;28;20013;-55
2024/03/25 14:30:03;;;;;;;8.13;2.42;;;;;;;;;;5044616;28;20021;-53
2024/03/25 14:32:29;;;;;;;8.38;2.28;;;;;;;;;;5054329;28;20025;-54
2024/03/25 14:34:55;;;;;;;8.57;2.42;;;;;;;;;;5054223;28;20021;-54
2024/03/25 14:37:22;;;;;;;7.00;2.10;;;;;;;;;;5058462;28;20025;-54
2024/03/25 14:39:48;;;;;;;8.80;2.38;;;;;;;;;;5058593;28;20035;-56